Terminal Aerodrome Forecast
Issued by NWS

Current Version | Previous Version | Text Only | Print | Product List | Glossary On
Versions: 1 2 3 4 5 6 7 8 9 10 11 12 13 14 15
017
FTUS44 KMAF 251127
TAFINK
TAF
KINK 251127Z 2512/2612 12014KT P6SM BKN035
      TEMPO 2512/2515 OVC015
     FM251600 12012G19KT P6SM BKN060 BKN120 PROB30 2603/2609 6SM
      TSRA BKN030CB
      AMD NOT SKED=

USA.gov is the U.S. government's official web portal to all federal, state and local government web resources and services.